Monson, Maine
Current Conditions -  °F | °C
As of 12:42 AM on Thursday 23 Oct 2014 (Local Time) from KMLT Reporting Station
Light Rain Light Rain  
Wind Chill: 39°   Ceiling: 1000
Heat Index: 44°   Visibility: 4mi
Dew Point: 42°   Wind: 9mph
Humidity: 93%   Direction: 30°NNE
Pressure: 30.19"   Gusts: 18mph
Location:  45.29°N, 69.5°W
Report Text: KMLT 230442Z AUTO 03008G16KT 4SM -RA BR SCT007 BKN010 OVC015 07/06 A3019 RMK AO2 P0002 T00670056
Loading
Personal Weather Stations






























Interactive Weather Map
Tropical Storm Tracking
New forecast layout! Learn more

10-Day Weather Forecast

Advertisements
Track Severe Weather on mobile